Ashton, WV (25503)

5:37 PM EDT on August 29, 2015 (GMT -0400)
The Linde Farm in Ashton | | Change Station
CLOSE
Current Station
Personal Weather Station
Location: Ashton, WV
Elevation: 692 ft
Nearby Weather Stations

Elev 692 ft 38.58 °N, 82.08 °W | Updated 2 minutes ago

Partly Cloudy
Partly Cloudy
94.3 °F
Feels Like 103 °F
N
1.1
Wind Variable Wind from ESE

Today
High -- | Low -- °F
--% Chance of Precip.
Yesterday
High -- | Low -- °F
Precip. -- in
6:54 AM 8:03 PM
Full, 100% visible
Pressure 30.07 in
Visibility 10.0 miles
Clouds Few 6000 ft
Heat Index 103 °F
Dew Point 72 °F
Humidity 49%
Rainfall 0.00 in
Snow Depth Not available.
UV 4 out of 12
Pollen 9.20 out of 12
Air Quality Not available.
Flu Activity Not available.
METAR KHTS 292051Z 16005KT 10SM FEW060 30/18 A3009 RMK AO2 SLP183 T03000178 56023
Pressure 30.07 in
Visibility 10.0 miles
Clouds Few 6000 ft
Heat Index 103 °F
Dew Point 72 °F
Humidity 49%
Rainfall 0.00 in
Snow Depth Not available.
UV 4 out of 12
Pollen 9.20 out of 12
Air Quality Not available.
Flu Activity Not available.
METAR KHTS 292051Z 16005KT 10SM FEW060 30/18 A3009 RMK AO2 SLP183 T03000178 56023

10-Day Weather Forecast

×

Almanac

Astronomy

Aug. 29, 2015 Rise Set
Actual Time
Civil Twilight
Nautical Twilight
Astronomical Twilight
Moon
Length of Visible Light
Length of Day
Tomorrow will be .
, % of the Moon is Illuminated

Today's Extremes

State Highs State Lows

Community

WunderPhotos

Upload Photos

1,850,799 photos uploaded!

WunderBlogs® & News

Nearby

Air Quality

  Air Quality AQ Index Pollutant
Not available.

Snow Depth

Station Depth Elevation

Earthquake Activity

City Distance Mag. Time & Date
Minimum magnitude displayed is 2.5.

Coastal Water Temperatures

Place Temperature

Stations

Nearby Weather Stations

Station Location Temp. Windchill Dew Point Humidity Wind Precip. Elev Updated Type